Terminal Aerodrome Forecast
Issued by NWS Charleston, WV

Current Version | Previous Version | Graphics & Text | Print | Product List | Glossary On
Versions: 1 2 3 4 5 6 7 8 9 10 11 12 13 14 15 16 17 18 19 20 21 22 23 24 25 26 27 28 29 30 31
000
FTUS41 KRLX 262124 AAA
TAFCRW
TAF AMD
KCRW 262124Z 2621/2718 VRB03KT 5SM TSRA BR BKN035CB
      TEMPO 2621/2623 1SM +TSRA BR SCT001 BKN012CB OVC025
     FM270100 00000KT P6SM VCSH BKN050
     FM270400 00000KT P6SM SCT080
     FM270800 00000KT 5SM BR BKN080
     FM271300 VRB02KT P6SM SCT040 BKN080=

USA.gov is the U.S. government's official web portal to all federal, state and local government web resources and services.